Heydar Aliyev International Airport

UBBB · Baki, Azerbaijan

METAR history UBBB · Heydar Aliyev International Airport

Below you see METARs of the last few days. Select a year to browse through older METARs, from the year 2007 onwards.

April 19, 2024

Time Code Weather Temp. Visibility Ceiling Wind METAR/SPECI
21:30
V
17 °C 10 km+ - 010° 010° 4 kt METAR UBBB 191730Z 01004KT CAVOK 17/11 Q1010 NOSIG
21:00
V
18 °C 10 km+ - 030° 030° 4 kt METAR UBBB 191700Z 03004KT CAVOK 18/11 Q1009 NOSIG
20:30
V
19 °C 10 km+ - 360° 360° 0 kt METAR UBBB 191630Z 00000KT CAVOK 19/13 Q1009 NOSIG
20:00
V
20 °C 10 km+ - 280° 280° 2 kt METAR UBBB 191600Z 28002KT CAVOK 20/12 Q1009 NOSIG
19:30
V
20 °C 10 km+ - Var Var 2 kt METAR UBBB 191530Z VRB02KT CAVOK 20/12 Q1008 NOSIG
19:00
V
22 °C 10 km+ - 170° 170° 4 kt METAR UBBB 191500Z 17004KT CAVOK 22/11 Q1008 NOSIG
18:30
V
24 °C 10 km+ - 140° 140° 6 kt METAR UBBB 191430Z 14006KT CAVOK 24/11 Q1007 NOSIG
18:00
V
24 °C 10 km+ - 150° 150° 10 kt METAR UBBB 191400Z 15010KT CAVOK 24/11 Q1007 NOSIG
17:30
V
24 °C 10 km+ - 150° 150° 12 kt METAR UBBB 191330Z 15012KT CAVOK 24/11 Q1007 NOSIG
17:00
V
26 °C 10 km+ - 150° 150° 12 kt METAR UBBB 191300Z 15012KT CAVOK 26/09 Q1007 NOSIG
16:30
V
25 °C 10 km+ - 150° 150° 12 kt METAR UBBB 191230Z 15012KT CAVOK 25/09 Q1007 NOSIG
16:00
V
25 °C 10 km+ - 160° 160° 10 kt METAR UBBB 191200Z 16010KT CAVOK 25/09 Q1007 NOSIG
15:30
V
25 °C 10 km+ - 160° 160° 10 kt METAR UBBB 191130Z 16010KT CAVOK 25/09 Q1007 NOSIG
15:00
V
26 °C 10 km+ - 150° 150° 10 kt METAR UBBB 191100Z 15010KT CAVOK 26/07 Q1007 NOSIG
14:30
V
26 °C 10 km+ - 150° 150° 12 kt METAR UBBB 191030Z 15012KT CAVOK 26/07 Q1007 NOSIG
14:00
V
26 °C 10 km+ - 160° 160° 12 kt METAR UBBB 191000Z 16012KT CAVOK 26/08 Q1007 NOSIG
13:30
V
25 °C 10 km+ - 160° 160° 14 kt METAR UBBB 190930Z 16014KT CAVOK 25/08 Q1007 NOSIG
13:00
V
26 °C 10 km+ - 160° 160° 12 kt METAR UBBB 190900Z 16012KT CAVOK 26/08 Q1007 NOSIG
12:30
V
25 °C 10 km+ - 170° 170° 12 kt METAR UBBB 190830Z 17012KT CAVOK 25/09 Q1008 NOSIG
12:00
V
25 °C 10 km+ - 150° 150° 12 kt METAR UBBB 190800Z 15012KT CAVOK 25/10 Q1008 NOSIG
11:30
V
25 °C 10 km+ - 160° 160° 12 kt METAR UBBB 190730Z 16012KT CAVOK 25/10 Q1008 NOSIG
11:00
V
25 °C 10 km+ - 190° 190° 8 kt METAR UBBB 190700Z 19008KT CAVOK 25/09 Q1008 NOSIG
10:30
V
25 °C 10 km+ - 210° 210° 8 kt METAR UBBB 190630Z 21008KT CAVOK 25/09 Q1008 NOSIG
10:00
V
23 °C 10 km+ - 190° 190° 10 kt METAR UBBB 190600Z 19010KT CAVOK 23/11 Q1008 NOSIG
09:30
V
23 °C 10 km+ - 180° 180° 10 kt METAR UBBB 190530Z 18010KT CAVOK 23/09 Q1008 NOSIG
09:00
V
22 °C 10 km+ - 180° 180° 10 kt METAR UBBB 190500Z 18010KT CAVOK 22/11 Q1008 NOSIG
08:30
V
20 °C 10 km+ - 160° 160° 10 kt METAR UBBB 190430Z 16010KT CAVOK 20/13 Q1007 NOSIG
08:00
V
18 °C 10 km+ - 160° 160° 10 kt METAR UBBB 190400Z 16010KT CAVOK 18/14 Q1007 NOSIG
07:30
V
16 °C 10 km+ - 140° 140° 10 kt METAR UBBB 190330Z 14010KT CAVOK 16/14 Q1007 NOSIG
07:00
V
15 °C 10 km+ - 140° 140° 8 kt METAR UBBB 190300Z 14008KT CAVOK 15/13 Q1007 NOSIG
06:30
V
13 °C 10 km+ - 150° 150° 10 kt METAR UBBB 190230Z 15010KT CAVOK 13/12 Q1007 NOSIG
06:00
V
12 °C 10 km+ - 160° 160° 8 kt METAR UBBB 190200Z 16008KT CAVOK 12/11 Q1007 NOSIG
05:30
V
13 °C 10 km+ - 140° 140° 8 kt METAR UBBB 190130Z 14008KT CAVOK 13/12 Q1007 NOSIG
05:00
V
13 °C 10 km+ - 150° 150° 8 kt METAR UBBB 190100Z 15008KT CAVOK 13/11 Q1007 NOSIG
04:30
V
13 °C 10 km+ - 150° 150° 8 kt METAR UBBB 190030Z 15008KT CAVOK 13/10 Q1007 NOSIG
04:00
V
13 °C 10 km+ - 140° 140° 8 kt METAR UBBB 190000Z 14008KT CAVOK 13/10 Q1007 NOSIG
03:30
V
13 °C 10 km+ - 160° 160° 6 kt METAR UBBB 182330Z 16006KT CAVOK 13/11 Q1007 NOSIG
03:00
V
13 °C 10 km+ - 110° 110° 8 kt METAR UBBB 182300Z 11008KT CAVOK 13/09 Q1007 NOSIG
02:30
V
15 °C 10 km+ - 100° 100° 6 kt METAR UBBB 182230Z 10006KT CAVOK 15/09 Q1007 NOSIG
02:00
V
17 °C 10 km+ - 180° 180° 4 kt METAR UBBB 182200Z 18004KT CAVOK 17/09 Q1007 NOSIG
01:30
V
17 °C 10 km+ - 130° 130° 4 kt METAR UBBB 182130Z 13004KT CAVOK 17/09 Q1007 NOSIG
01:00
V
17 °C 10 km+ - 150° 150° 6 kt METAR UBBB 182100Z 15006KT CAVOK 17/09 Q1007 NOSIG
00:30
V
17 °C 10 km+ - 120° 120° 4 kt METAR UBBB 182030Z 12004KT CAVOK 17/10 Q1007 NOSIG
00:00
V
17 °C 10 km+ - 200° 200° 6 kt METAR UBBB 182000Z 20006KT CAVOK 17/09 Q1008 NOSIG

April 18, 2024

Time Code Weather Temp. Visibility Ceiling Wind METAR/SPECI
23:30
V
18 °C 10 km+ - 150° 150° 6 kt METAR UBBB 181930Z 15006KT CAVOK 18/09 Q1008 NOSIG
23:00
V
19 °C 10 km+ - 190° 190° 12 kt METAR UBBB 181900Z 19012KT CAVOK 19/09 Q1007 NOSIG
22:30
V
18 °C 10 km+ - 170° 170° 14 kt METAR UBBB 181830Z 17014KT CAVOK 18/10 Q1007 NOSIG
22:00
V
17 °C 10 km+ - 160° 160° 12 kt METAR UBBB 181800Z 16012KT CAVOK 17/11 Q1008 NOSIG
21:30
V
16 °C 10 km+ - 150° 150° 12 kt METAR UBBB 181730Z 15012KT CAVOK 16/11 Q1008 NOSIG
21:00
V
16 °C 10 km+ - 150° 150° 12 kt METAR UBBB 181700Z 15012KT CAVOK 16/12 Q1008 NOSIG
20:30
V
17 °C 10 km+ - 160° 160° 12 kt METAR UBBB 181630Z 16012KT CAVOK 17/11 Q1008 NOSIG
20:00
V
17 °C 10 km+ - 160° 160° 14 kt METAR UBBB 181600Z 16014KT CAVOK 17/12 Q1008 NOSIG
19:30
V
17 °C 10 km+ - 160° 160° 14 kt METAR UBBB 181530Z 16014KT CAVOK 17/12 Q1008 NOSIG
19:00
V
18 °C 10 km+ - 160° 160° 14 kt METAR UBBB 181500Z 16014KT CAVOK 18/11 Q1008 NOSIG
18:30
V
19 °C 10 km+ - 160° 160° 16 kt METAR UBBB 181430Z 16016KT CAVOK 19/10 Q1008 NOSIG
18:00
V
20 °C 10 km+ - 170° 170° 14 kt METAR UBBB 181400Z 17014KT CAVOK 20/09 Q1008 NOSIG
17:30
V
21 °C 10 km+ - 160° 160° 16 kt METAR UBBB 181330Z 16016KT CAVOK 21/09 Q1008 NOSIG
17:00
V
22 °C 10 km+ - 170° 170° 18 kt METAR UBBB 181300Z 17018KT CAVOK 22/08 Q1008 NOSIG
16:30
V
23 °C 10 km+ - 170° 170° 21 kt METAR UBBB 181230Z 17021KT CAVOK 23/08 Q1008 NOSIG
16:00
V
24 °C 10 km+ - 170° 170° 20 kt METAR UBBB 181200Z 17020KT CAVOK 24/07 Q1008 NOSIG
15:30
V
24 °C 10 km+ - 180° 180° 20 kt METAR UBBB 181130Z 18020KT CAVOK 24/08 Q1009 NOSIG
15:00
V
24 °C 10 km+ - 180° 180° 18 kt METAR UBBB 181100Z 18018KT CAVOK 24/07 Q1009 NOSIG
14:30
V
24 °C 10 km+ - 170° 170° 20 kt METAR UBBB 181030Z 17020KT CAVOK 24/07 Q1009 NOSIG
14:00
V
24 °C 10 km+ - 170° 170° 22 kt METAR UBBB 181000Z 17022KT CAVOK 24/08 Q1009 NOSIG
13:30
V
24 °C 10 km+ - 160° 160° 22 kt METAR UBBB 180930Z 16022KT CAVOK 24/07 Q1010 NOSIG
13:00
V
24 °C 10 km+ - 170° 170° 20 kt METAR UBBB 180900Z 17020KT CAVOK 24/07 Q1010 NOSIG
12:30
V
24 °C 10 km+ - 170° 170° 20 kt METAR UBBB 180830Z 17020KT CAVOK 24/07 Q1011 NOSIG
12:00
V
23 °C 10 km+ - 170° 170° 20 kt METAR UBBB 180800Z 17020KT CAVOK 23/07 Q1011 NOSIG
11:30
V
22 °C 10 km+ - 170° 170° 18 kt METAR UBBB 180730Z 17018KT CAVOK 22/07 Q1011 NOSIG
11:00
V
22 °C 10 km+ - 180° 180° 16 kt METAR UBBB 180700Z 18016KT CAVOK 22/08 Q1011 NOSIG
10:30
V
22 °C 10 km+ - 190° 190° 16 kt METAR UBBB 180630Z 19016KT CAVOK 22/08 Q1012 NOSIG
10:00
V
22 °C 10 km+ - 180° 180° 16 kt METAR UBBB 180600Z 18016KT CAVOK 22/08 Q1012 NOSIG
09:30
V
21 °C 10 km+ - 190° 190° 14 kt METAR UBBB 180530Z 19014KT CAVOK 21/08 Q1012 NOSIG
09:00
V
20 °C 10 km+ - 200° 200° 12 kt METAR UBBB 180500Z 20012KT CAVOK 20/10 Q1012 NOSIG
08:30
V
19 °C 10 km+ - 160° 160° 12 kt METAR UBBB 180430Z 16012KT CAVOK 19/11 Q1012 NOSIG
08:00
V
18 °C 10 km+ - 160° 160° 12 kt METAR UBBB 180400Z 16012KT CAVOK 18/12 Q1012 NOSIG
07:30
V
16 °C 10 km+ - 160° 160° 8 kt METAR UBBB 180330Z 16008KT CAVOK 16/13 Q1012 NOSIG
07:00
V
15 °C 10 km+ - 160° 160° 8 kt METAR UBBB 180300Z 16008KT CAVOK 15/14 Q1012 NOSIG
06:30
V
13 °C 10 km+ - 160° 160° 8 kt METAR UBBB 180230Z 16008KT CAVOK 13/12 Q1012 NOSIG
06:00
V
13 °C 10 km+ - 150° 150° 8 kt METAR UBBB 180200Z 15008KT CAVOK 13/12 Q1012 NOSIG
05:30
V
12 °C 10 km+ - 170° 170° 6 kt METAR UBBB 180130Z 17006KT CAVOK 12/10 Q1012 NOSIG
05:00
V
12 °C 10 km+ - 160° 160° 8 kt METAR UBBB 180100Z 16008KT CAVOK 12/10 Q1012 NOSIG
04:30
V
13 °C 10 km+ - 160° 160° 8 kt METAR UBBB 180030Z 16008KT CAVOK 13/11 Q1012 NOSIG
04:00
V
12 °C 10 km+ - 160° 160° 10 kt METAR UBBB 180000Z 16010KT CAVOK 12/10 Q1012 NOSIG
03:30
V
13 °C 10 km+ - 160° 160° 8 kt METAR UBBB 172330Z 16008KT CAVOK 13/11 Q1012 NOSIG
03:00
V
13 °C 10 km+ - 140° 140° 12 kt METAR UBBB 172300Z 14012KT CAVOK 13/11 Q1012 NOSIG
02:30
V
14 °C 10 km+ - 160° 160° 8 kt METAR UBBB 172230Z 16008KT CAVOK 14/09 Q1012 NOSIG
02:00
V
14 °C 10 km+ - 140° 140° 8 kt METAR UBBB 172200Z 14008KT CAVOK 14/09 Q1012 NOSIG
01:30
V
15 °C 10 km+ - 160° 160° 10 kt METAR UBBB 172130Z 16010KT CAVOK 15/08 Q1012 NOSIG
01:00
V
16 °C 10 km+ - 190° 190° 6 kt METAR UBBB 172100Z 19006KT CAVOK 16/07 Q1012 NOSIG
00:30
V
14 °C 10 km+ - 170° 170° 6 kt METAR UBBB 172030Z 17006KT CAVOK 14/08 Q1013 NOSIG
00:00
V
15 °C 10 km+ - 170° 170° 8 kt METAR UBBB 172000Z 17008KT CAVOK 15/10 Q1013 NOSIG

April 17, 2024

Time Code Weather Temp. Visibility Ceiling Wind METAR/SPECI
23:30
V
15 °C 10 km+ - 160° 160° 10 kt METAR UBBB 171930Z 16010KT CAVOK 15/11 Q1013 NOSIG
23:00
V
15 °C 10 km+ - 160° 160° 10 kt METAR UBBB 171900Z 16010KT CAVOK 15/10 Q1013 NOSIG
22:30
V
15 °C 10 km+ - 150° 150° 10 kt METAR UBBB 171830Z 15010KT CAVOK 15/10 Q1013 NOSIG
22:00
V
16 °C 10 km+ - 170° 170° 8 kt METAR UBBB 171800Z 17008KT CAVOK 16/06 Q1013 NOSIG
21:30
V
17 °C 10 km+ - 180° 180° 6 kt METAR UBBB 171730Z 18006KT CAVOK 17/07 Q1013 NOSIG
21:00
V
17 °C 10 km+ - 190° 190° 8 kt METAR UBBB 171700Z 19008KT CAVOK 17/08 Q1014 NOSIG
20:30
V
17 °C 10 km+ - 160° 160° 8 kt METAR UBBB 171630Z 16008KT CAVOK 17/09 Q1013 NOSIG
20:00
V
17 °C 10 km+ - 160° 160° 10 kt METAR UBBB 171600Z 16010KT CAVOK 17/08 Q1013 NOSIG
19:30
V
17 °C 10 km+ - 160° 160° 10 kt METAR UBBB 171530Z 16010KT CAVOK 17/07 Q1013 NOSIG
19:00
V
18 °C 10 km+ - 170° 170° 10 kt METAR UBBB 171500Z 17010KT CAVOK 18/07 Q1013 NOSIG
18:30
V
19 °C 10 km+ - 160° 160° 12 kt METAR UBBB 171430Z 16012KT CAVOK 19/07 Q1013 NOSIG
18:00
V
20 °C 10 km+ - 170° 170° 14 kt METAR UBBB 171400Z 17014KT CAVOK 20/07 Q1013 NOSIG
17:30
V
21 °C 10 km+ - 170° 170° 16 kt METAR UBBB 171330Z 17016KT CAVOK 21/07 Q1013 NOSIG
17:00
V
21 °C 10 km+ - 170° 170° 16 kt METAR UBBB 171300Z 17016KT CAVOK 21/07 Q1013 NOSIG
16:30
V
21 °C 10 km+ - 170° 170° 16 kt METAR UBBB 171230Z 17016KT CAVOK 21/07 Q1013 NOSIG
16:00
V
21 °C 10 km+ - 180° 180° 20 kt METAR UBBB 171200Z 18020KT CAVOK 21/07 Q1014 NOSIG
15:30
V
22 °C 10 km+ - 170° 170° 18 kt METAR UBBB 171130Z 17018KT CAVOK 22/07 Q1014 NOSIG
15:00
V
22 °C 10 km+ - 180° 180° 18 kt METAR UBBB 171100Z 18018KT CAVOK 22/07 Q1014 NOSIG
14:30
V
22 °C 10 km+ - 170° 170° 18 kt METAR UBBB 171030Z 17018KT CAVOK 22/07 Q1014 NOSIG
14:00
V
22 °C 10 km+ - 170° 170° 20 kt METAR UBBB 171000Z 17020KT CAVOK 22/08 Q1015 NOSIG
13:30
V
21 °C 10 km+ - 170° 170° 18 kt METAR UBBB 170930Z 17018KT CAVOK 21/07 Q1015 NOSIG
13:00
V
21 °C 10 km+ - 170° 170° 18 kt METAR UBBB 170900Z 17018KT CAVOK 21/07 Q1015 NOSIG
12:30
V
21 °C 10 km+ - 160° 160° 22 kt METAR UBBB 170830Z 16022KT CAVOK 21/08 Q1015 NOSIG
12:00
V
20 °C 10 km+ - 170° 170° 22 kt METAR UBBB 170800Z 17022KT CAVOK 20/08 Q1016 NOSIG
11:30
V
20 °C 10 km+ - 160° 160° 22 kt METAR UBBB 170730Z 16022KT CAVOK 20/10 Q1016 NOSIG
11:00
V
19 °C 10 km+ - 170° 170° 18 kt METAR UBBB 170700Z 17018KT CAVOK 19/11 Q1016 NOSIG
10:30
V
19 °C 10 km+ - 160° 160° 18 kt METAR UBBB 170630Z 16018KT CAVOK 19/11 Q1016 NOSIG
10:00
V
19 °C 10 km+ - 160° 160° 16 kt METAR UBBB 170600Z 16016KT CAVOK 19/12 Q1017 NOSIG
Report a change